sensor_id;sensor_type;location;lat;lon;timestamp;P1;durP1;ratioP1;P2;durP2;ratioP2
23539;SDS011;11947;50.810;4.394;2022-08-04T00:00:25;10.40;;;4.82;;
23539;SDS011;11947;50.810;4.394;2022-08-04T00:05:37;13.85;;;5.00;;
23539;SDS011;11947;50.810;4.394;2022-08-04T00:10:50;10.13;;;4.40;;
23539;SDS011;11947;50.810;4.394;2022-08-04T00:13:23;13.52;;;4.90;;
23539;SDS011;11947;50.810;4.394;2022-08-04T00:15:56;10.38;;;5.30;;
23539;SDS011;11947;50.810;4.394;2022-08-04T00:18:29;16.23;;;4.80;;
23539;SDS011;11947;50.810;4.394;2022-08-04T00:21:02;8.57;;;4.35;;
23539;SDS011;11947;50.810;4.394;2022-08-04T00:23:29;10.55;;;4.43;;
23539;SDS011;11947;50.810;4.394;2022-08-04T00:25:59;11.93;;;4.68;;
23539;SDS011;11947;50.810;4.394;2022-08-04T00:28:26;17.80;;;4.47;;
23539;SDS011;11947;50.810;4.394;2022-08-04T00:30:53;11.40;;;4.88;;
23539;SDS011;11947;50.810;4.394;2022-08-04T00:33:19;12.75;;;4.80;;
23539;SDS011;11947;50.810;4.394;2022-08-04T00:35:46;10.95;;;5.45;;
23539;SDS011;11947;50.810;4.394;2022-08-04T00:38:14;10.52;;;5.85;;
23539;SDS011;11947;50.810;4.394;2022-08-04T00:40:49;15.02;;;6.25;;
23539;SDS011;11947;50.810;4.394;2022-08-04T00:52:08;17.67;;;4.90;;
23539;SDS011;11947;50.810;4.394;2022-08-04T01:01:07;12.82;;;4.25;;
23539;SDS011;11947;50.810;4.394;2022-08-04T01:03:55;9.52;;;4.38;;
23539;SDS011;11947;50.810;4.394;2022-08-04T01:09:07;13.77;;;4.22;;
23539;SDS011;11947;50.810;4.394;2022-08-04T01:15:05;7.43;;;4.30;;
23539;SDS011;11947;50.810;4.394;2022-08-04T01:20:11;8.83;;;4.30;;
23539;SDS011;11947;50.810;4.394;2022-08-04T01:31:02;7.80;;;4.70;;
23539;SDS011;11947;50.810;4.394;2022-08-04T01:33:38;10.40;;;5.10;;
23539;SDS011;11947;50.810;4.394;2022-08-04T01:36:07;12.90;;;4.85;;
23539;SDS011;11947;50.810;4.394;2022-08-04T01:38:36;12.68;;;4.85;;
23539;SDS011;11947;50.810;4.394;2022-08-04T01:41:07;12.20;;;4.70;;
23539;SDS011;11947;50.810;4.394;2022-08-04T01:43:43;13.18;;;4.60;;
23539;SDS011;11947;50.810;4.394;2022-08-04T01:48:40;13.73;;;4.93;;
23539;SDS011;11947;50.810;4.394;2022-08-04T01:51:09;16.80;;;4.78;;
23539;SDS011;11947;50.810;4.394;2022-08-04T01:53:36;11.02;;;4.80;;
23539;SDS011;11947;50.810;4.394;2022-08-04T01:56:06;14.93;;;5.70;;
23539;SDS011;11947;50.810;4.394;2022-08-04T01:58:35;12.10;;;6.40;;
23539;SDS011;11947;50.810;4.394;2022-08-04T02:01:04;21.02;;;6.07;;
23539;SDS011;11947;50.810;4.394;2022-08-04T02:03:32;11.75;;;6.68;;
23539;SDS011;11947;50.810;4.394;2022-08-04T02:11:16;12.90;;;6.40;;
23539;SDS011;11947;50.810;4.394;2022-08-04T02:13:53;10.85;;;5.05;;
23539;SDS011;11947;50.810;4.394;2022-08-04T02:16:29;14.45;;;5.05;;
23539;SDS011;11947;50.810;4.394;2022-08-04T02:19:19;9.70;;;4.80;;
23539;SDS011;11947;50.810;4.394;2022-08-04T02:21:57;10.88;;;4.80;;
23539;SDS011;11947;50.810;4.394;2022-08-04T02:24:31;10.48;;;4.60;;
23539;SDS011;11947;50.810;4.394;2022-08-04T02:26:57;10.88;;;5.28;;
23539;SDS011;11947;50.810;4.394;2022-08-04T02:29:39;12.90;;;5.18;;
23539;SDS011;11947;50.810;4.394;2022-08-04T02:32:14;9.30;;;4.68;;
23539;SDS011;11947;50.810;4.394;2022-08-04T02:37:37;10.77;;;4.88;;
23539;SDS011;11947;50.810;4.394;2022-08-04T02:40:06;12.52;;;4.90;;
23539;SDS011;11947;50.810;4.394;2022-08-04T02:42:33;16.08;;;5.10;;
23539;SDS011;11947;50.810;4.394;2022-08-04T02:44:59;11.65;;;4.90;;
23539;SDS011;11947;50.810;4.394;2022-08-04T02:47:26;15.25;;;5.28;;
23539;SDS011;11947;50.810;4.394;2022-08-04T02:49:53;12.38;;;5.30;;
23539;SDS011;11947;50.810;4.394;2022-08-04T02:52:21;12.52;;;5.22;;
23539;SDS011;11947;50.810;4.394;2022-08-04T02:54:50;11.90;;;4.85;;
23539;SDS011;11947;50.810;4.394;2022-08-04T02:57:17;13.50;;;5.10;;
23539;SDS011;11947;50.810;4.394;2022-08-04T03:25:52;15.43;;;4.60;;
23539;SDS011;11947;50.810;4.394;2022-08-04T03:37:26;13.15;;;5.38;;
23539;SDS011;11947;50.810;4.394;2022-08-04T03:54:11;11.98;;;6.18;;
23539;SDS011;11947;50.810;4.394;2022-08-04T04:04:51;13.30;;;5.30;;
23539;SDS011;11947;50.810;4.394;2022-08-04T04:10:33;13.23;;;5.10;;
23539;SDS011;11947;50.810;4.394;2022-08-04T04:34:34;10.77;;;4.18;;
23539;SDS011;11947;50.810;4.394;2022-08-04T04:42:37;12.40;;;4.10;;
23539;SDS011;11947;50.810;4.394;2022-08-04T04:47:50;15.73;;;4.47;;
23539;SDS011;11947;50.810;4.394;2022-08-04T04:50:34;10.80;;;3.88;;
23539;SDS011;11947;50.810;4.394;2022-08-04T04:53:10;12.18;;;4.40;;
23539;SDS011;11947;50.810;4.394;2022-08-04T04:55:44;17.17;;;4.75;;
23539;SDS011;11947;50.810;4.394;2022-08-04T04:58:16;15.55;;;4.60;;
23539;SDS011;11947;50.810;4.394;2022-08-04T05:06:53;12.73;;;4.13;;
23539;SDS011;11947;50.810;4.394;2022-08-04T05:09:52;12.98;;;4.70;;
23539;SDS011;11947;50.810;4.394;2022-08-04T05:12:45;17.63;;;4.55;;
23539;SDS011;11947;50.810;4.394;2022-08-04T05:15:22;12.77;;;4.07;;
23539;SDS011;11947;50.810;4.394;2022-08-04T05:17:52;16.33;;;4.97;;
23539;SDS011;11947;50.810;4.394;2022-08-04T05:20:34;16.67;;;3.90;;
23539;SDS011;11947;50.810;4.394;2022-08-04T05:23:10;13.27;;;3.80;;
23539;SDS011;11947;50.810;4.394;2022-08-04T05:26:02;11.90;;;3.83;;
23539;SDS011;11947;50.810;4.394;2022-08-04T05:29:06;11.65;;;4.03;;
23539;SDS011;11947;50.810;4.394;2022-08-04T05:31:49;13.63;;;4.03;;
23539;SDS011;11947;50.810;4.394;2022-08-04T05:34:42;14.05;;;4.22;;
23539;SDS011;11947;50.810;4.394;2022-08-04T05:37:41;11.45;;;4.65;;
23539;SDS011;11947;50.810;4.394;2022-08-04T05:43:41;16.98;;;4.80;;
23539;SDS011;11947;50.810;4.394;2022-08-04T05:47:03;10.60;;;4.20;;
23539;SDS011;11947;50.810;4.394;2022-08-04T05:49:38;20.20;;;4.88;;
23539;SDS011;11947;50.810;4.394;2022-08-04T05:52:49;18.45;;;4.65;;
23539;SDS011;11947;50.810;4.394;2022-08-04T05:56:17;18.47;;;5.37;;
23539;SDS011;11947;50.810;4.394;2022-08-04T05:58:44;15.90;;;4.72;;
23539;SDS011;11947;50.810;4.394;2022-08-04T06:01:10;18.52;;;4.70;;
23539;SDS011;11947;50.810;4.394;2022-08-04T06:03:38;15.95;;;4.65;;
23539;SDS011;11947;50.810;4.394;2022-08-04T06:06:05;16.25;;;4.68;;
23539;SDS011;11947;50.810;4.394;2022-08-04T06:08:31;10.15;;;3.83;;
23539;SDS011;11947;50.810;4.394;2022-08-04T06:10:58;11.82;;;4.20;;
23539;SDS011;11947;50.810;4.394;2022-08-04T06:13:29;16.00;;;4.40;;
23539;SDS011;11947;50.810;4.394;2022-08-04T06:15:57;15.98;;;4.57;;
23539;SDS011;11947;50.810;4.394;2022-08-04T06:18:26;12.45;;;4.20;;
23539;SDS011;11947;50.810;4.394;2022-08-04T06:20:54;12.20;;;3.90;;
23539;SDS011;11947;50.810;4.394;2022-08-04T06:23:24;12.43;;;4.10;;
23539;SDS011;11947;50.810;4.394;2022-08-04T06:25:55;20.38;;;4.07;;
23539;SDS011;11947;50.810;4.394;2022-08-04T06:28:23;16.92;;;3.95;;
23539;SDS011;11947;50.810;4.394;2022-08-04T06:30:51;18.85;;;3.85;;
23539;SDS011;11947;50.810;4.394;2022-08-04T06:33:19;15.98;;;4.10;;
23539;SDS011;11947;50.810;4.394;2022-08-04T06:35:58;16.42;;;3.42;;
23539;SDS011;11947;50.810;4.394;2022-08-04T06:38:29;15.80;;;3.78;;
23539;SDS011;11947;50.810;4.394;2022-08-04T06:40:56;13.13;;;3.85;;
23539;SDS011;11947;50.810;4.394;2022-08-04T06:43:35;10.52;;;3.50;;
23539;SDS011;11947;50.810;4.394;2022-08-04T06:46:41;9.23;;;3.20;;
23539;SDS011;11947;50.810;4.394;2022-08-04T06:49:17;13.32;;;3.45;;
23539;SDS011;11947;50.810;4.394;2022-08-04T06:52:29;15.48;;;4.18;;
23539;SDS011;11947;50.810;4.394;2022-08-04T06:54:55;13.77;;;3.85;;
23539;SDS011;11947;50.810;4.394;2022-08-04T06:57:22;12.50;;;4.10;;
23539;SDS011;11947;50.810;4.394;2022-08-04T06:59:52;13.10;;;4.38;;
23539;SDS011;11947;50.810;4.394;2022-08-04T07:02:30;13.25;;;3.95;;
23539;SDS011;11947;50.810;4.394;2022-08-04T07:05:00;14.98;;;3.70;;
23539;SDS011;11947;50.810;4.394;2022-08-04T07:07:26;13.32;;;3.00;;
23539;SDS011;11947;50.810;4.394;2022-08-04T07:09:52;12.00;;;3.45;;
23539;SDS011;11947;50.810;4.394;2022-08-04T07:12:18;11.07;;;3.42;;
23539;SDS011;11947;50.810;4.394;2022-08-04T07:14:45;13.73;;;3.75;;
23539;SDS011;11947;50.810;4.394;2022-08-04T07:17:12;11.93;;;3.25;;
23539;SDS011;11947;50.810;4.394;2022-08-04T07:19:42;14.05;;;3.42;;
23539;SDS011;11947;50.810;4.394;2022-08-04T07:22:08;11.20;;;4.10;;
23539;SDS011;11947;50.810;4.394;2022-08-04T07:24:35;18.13;;;4.63;;
23539;SDS011;11947;50.810;4.394;2022-08-04T07:27:02;18.48;;;4.95;;
23539;SDS011;11947;50.810;4.394;2022-08-04T07:29:28;14.45;;;4.72;;
23539;SDS011;11947;50.810;4.394;2022-08-04T07:31:55;17.35;;;4.50;;
23539;SDS011;11947;50.810;4.394;2022-08-04T07:34:22;14.23;;;4.22;;
23539;SDS011;11947;50.810;4.394;2022-08-04T07:36:49;12.60;;;3.83;;
23539;SDS011;11947;50.810;4.394;2022-08-04T07:39:17;11.27;;;4.35;;
23539;SDS011;11947;50.810;4.394;2022-08-04T07:41:43;14.80;;;4.32;;
23539;SDS011;11947;50.810;4.394;2022-08-04T07:44:09;16.17;;;4.97;;
23539;SDS011;11947;50.810;4.394;2022-08-04T07:46:38;14.75;;;4.60;;
23539;SDS011;11947;50.810;4.394;2022-08-04T07:49:04;15.63;;;4.50;;
23539;SDS011;11947;50.810;4.394;2022-08-04T07:51:31;16.58;;;4.30;;
23539;SDS011;11947;50.810;4.394;2022-08-04T07:53:59;18.38;;;4.82;;
23539;SDS011;11947;50.810;4.394;2022-08-04T07:56:28;13.70;;;4.60;;
23539;SDS011;11947;50.810;4.394;2022-08-04T07:59:16;10.77;;;4.15;;
23539;SDS011;11947;50.810;4.394;2022-08-04T08:01:42;16.48;;;4.78;;
23539;SDS011;11947;50.810;4.394;2022-08-04T08:04:09;16.15;;;5.18;;
23539;SDS011;11947;50.810;4.394;2022-08-04T08:06:38;14.90;;;4.40;;
23539;SDS011;11947;50.810;4.394;2022-08-04T08:09:16;18.05;;;4.80;;
23539;SDS011;11947;50.810;4.394;2022-08-04T08:11:58;16.58;;;4.63;;
23539;SDS011;11947;50.810;4.394;2022-08-04T08:14:41;14.48;;;4.85;;
23539;SDS011;11947;50.810;4.394;2022-08-04T08:21:06;11.18;;;4.43;;
23539;SDS011;11947;50.810;4.394;2022-08-04T08:23:34;17.38;;;5.28;;
23539;SDS011;11947;50.810;4.394;2022-08-04T08:26:04;22.55;;;5.43;;
23539;SDS011;11947;50.810;4.394;2022-08-04T08:28:35;14.45;;;4.75;;
23539;SDS011;11947;50.810;4.394;2022-08-04T08:31:01;17.13;;;5.70;;
23539;SDS011;11947;50.810;4.394;2022-08-04T08:33:26;14.70;;;5.00;;
23539;SDS011;11947;50.810;4.394;2022-08-04T08:36:00;13.00;;;5.20;;
23539;SDS011;11947;50.810;4.394;2022-08-04T08:55:45;13.27;;;6.13;;
23539;SDS011;11947;50.810;4.394;2022-08-04T09:04:25;15.35;;;7.25;;
23539;SDS011;11947;50.810;4.394;2022-08-04T09:10:16;17.70;;;6.22;;
23539;SDS011;11947;50.810;4.394;2022-08-04T09:12:59;17.48;;;6.88;;
23539;SDS011;11947;50.810;4.394;2022-08-04T09:15:32;23.95;;;8.20;;
23539;SDS011;11947;50.810;4.394;2022-08-04T09:18:19;21.80;;;8.38;;
23539;SDS011;11947;50.810;4.394;2022-08-04T09:20:47;20.08;;;8.43;;
23539;SDS011;11947;50.810;4.394;2022-08-04T09:28:50;18.08;;;7.53;;
23539;SDS011;11947;50.810;4.394;2022-08-04T09:31:26;19.45;;;8.25;;
23539;SDS011;11947;50.810;4.394;2022-08-04T09:34:16;20.25;;;8.88;;
23539;SDS011;11947;50.810;4.394;2022-08-04T09:54:24;20.27;;;9.52;;
23539;SDS011;11947;50.810;4.394;2022-08-04T10:00:13;21.50;;;10.65;;
23539;SDS011;11947;50.810;4.394;2022-08-04T10:03:14;24.55;;;10.10;;
23539;SDS011;11947;50.810;4.394;2022-08-04T10:08:37;31.15;;;13.10;;
23539;SDS011;11947;50.810;4.394;2022-08-04T10:14:52;30.98;;;14.50;;
23539;SDS011;11947;50.810;4.394;2022-08-04T10:21:06;26.88;;;14.35;;
23539;SDS011;11947;50.810;4.394;2022-08-04T10:27:03;30.52;;;15.48;;
23539;SDS011;11947;50.810;4.394;2022-08-04T10:29:42;26.92;;;14.57;;
23539;SDS011;11947;50.810;4.394;2022-08-04T10:32:14;28.70;;;15.77;;
23539;SDS011;11947;50.810;4.394;2022-08-04T10:37:23;27.27;;;14.10;;
23539;SDS011;11947;50.810;4.394;2022-08-04T10:39:56;26.27;;;13.82;;
23539;SDS011;11947;50.810;4.394;2022-08-04T10:42:56;26.83;;;14.10;;
23539;SDS011;11947;50.810;4.394;2022-08-04T10:45:25;26.88;;;13.63;;
23539;SDS011;11947;50.810;4.394;2022-08-04T10:47:58;30.23;;;15.80;;
23539;SDS011;11947;50.810;4.394;2022-08-04T10:50:24;23.65;;;14.05;;
23539;SDS011;11947;50.810;4.394;2022-08-04T10:52:54;25.88;;;15.30;;
23539;SDS011;11947;50.810;4.394;2022-08-04T10:55:36;25.45;;;15.60;;
23539;SDS011;11947;50.810;4.394;2022-08-04T10:58:12;30.25;;;18.73;;
23539;SDS011;11947;50.810;4.394;2022-08-04T11:00:43;26.20;;;16.23;;
23539;SDS011;11947;50.810;4.394;2022-08-04T11:03:30;26.02;;;16.48;;
23539;SDS011;11947;50.810;4.394;2022-08-04T11:06:04;27.05;;;17.73;;
23539;SDS011;11947;50.810;4.394;2022-08-04T11:14:12;30.05;;;17.38;;
23539;SDS011;11947;50.810;4.394;2022-08-04T11:20:15;28.05;;;16.80;;
23539;SDS011;11947;50.810;4.394;2022-08-04T11:23:13;30.45;;;17.63;;
23539;SDS011;11947;50.810;4.394;2022-08-04T11:31:53;29.42;;;18.45;;
23539;SDS011;11947;50.810;4.394;2022-08-04T11:34:24;27.40;;;15.82;;
23539;SDS011;11947;50.810;4.394;2022-08-04T11:37:35;25.05;;;15.32;;
23539;SDS011;11947;50.810;4.394;2022-08-04T11:40:44;22.00;;;12.80;;
23539;SDS011;11947;50.810;4.394;2022-08-04T11:46:46;20.17;;;14.73;;
23539;SDS011;11947;50.810;4.394;2022-08-04T11:49:28;24.27;;;15.45;;
23539;SDS011;11947;50.810;4.394;2022-08-04T11:52:08;25.95;;;13.60;;
23539;SDS011;11947;50.810;4.394;2022-08-04T11:54:36;24.48;;;15.02;;
23539;SDS011;11947;50.810;4.394;2022-08-04T11:57:04;23.80;;;16.15;;
23539;SDS011;11947;50.810;4.394;2022-08-04T11:59:34;27.00;;;15.00;;
23539;SDS011;11947;50.810;4.394;2022-08-04T12:04:59;17.63;;;11.73;;
23539;SDS011;11947;50.810;4.394;2022-08-04T12:22:14;15.30;;;8.50;;
23539;SDS011;11947;50.810;4.394;2022-08-04T12:24:48;13.02;;;7.95;;
23539;SDS011;11947;50.810;4.394;2022-08-04T12:27:52;11.73;;;7.20;;
23539;SDS011;11947;50.810;4.394;2022-08-04T12:30:17;17.25;;;7.95;;
23539;SDS011;11947;50.810;4.394;2022-08-04T12:33:06;12.25;;;6.43;;
23539;SDS011;11947;50.810;4.394;2022-08-04T12:47:01;10.20;;;6.18;;
23539;SDS011;11947;50.810;4.394;2022-08-04T12:49:51;10.88;;;7.45;;
23539;SDS011;11947;50.810;4.394;2022-08-04T12:52:19;9.70;;;6.15;;
23539;SDS011;11947;50.810;4.394;2022-08-04T12:54:47;12.80;;;7.47;;
23539;SDS011;11947;50.810;4.394;2022-08-04T12:57:18;16.33;;;6.85;;
23539;SDS011;11947;50.810;4.394;2022-08-04T12:59:48;12.10;;;5.78;;
23539;SDS011;11947;50.810;4.394;2022-08-04T13:02:41;12.88;;;7.40;;
23539;SDS011;11947;50.810;4.394;2022-08-04T13:05:33;11.43;;;6.28;;
23539;SDS011;11947;50.810;4.394;2022-08-04T13:08:01;13.43;;;7.57;;
23539;SDS011;11947;50.810;4.394;2022-08-04T13:10:28;13.65;;;6.35;;
23539;SDS011;11947;50.810;4.394;2022-08-04T13:12:56;18.02;;;7.88;;
23539;SDS011;11947;50.810;4.394;2022-08-04T13:15:29;12.07;;;7.32;;
23539;SDS011;11947;50.810;4.394;2022-08-04T13:18:22;18.02;;;8.35;;
23539;SDS011;11947;50.810;4.394;2022-08-04T13:21:12;13.13;;;7.80;;
23539;SDS011;11947;50.810;4.394;2022-08-04T13:23:42;11.77;;;7.53;;
23539;SDS011;11947;50.810;4.394;2022-08-04T13:26:34;10.95;;;5.90;;
23539;SDS011;11947;50.810;4.394;2022-08-04T13:29:01;15.15;;;7.38;;
23539;SDS011;11947;50.810;4.394;2022-08-04T13:31:36;12.88;;;6.22;;
23539;SDS011;11947;50.810;4.394;2022-08-04T13:34:07;13.35;;;5.80;;
23539;SDS011;11947;50.810;4.394;2022-08-04T13:36:41;10.98;;;5.78;;
23539;SDS011;11947;50.810;4.394;2022-08-04T13:39:16;10.27;;;5.50;;
23539;SDS011;11947;50.810;4.394;2022-08-04T13:41:44;12.15;;;6.13;;
23539;SDS011;11947;50.810;4.394;2022-08-04T13:44:21;13.48;;;5.45;;
23539;SDS011;11947;50.810;4.394;2022-08-04T13:46:52;10.73;;;5.82;;
23539;SDS011;11947;50.810;4.394;2022-08-04T13:49:24;14.15;;;5.47;;
23539;SDS011;11947;50.810;4.394;2022-08-04T13:51:51;10.05;;;4.97;;
23539;SDS011;11947;50.810;4.394;2022-08-04T13:54:22;11.88;;;6.32;;
23539;SDS011;11947;50.810;4.394;2022-08-04T13:57:01;14.88;;;7.45;;
23539;SDS011;11947;50.810;4.394;2022-08-04T13:59:51;17.52;;;5.57;;
23539;SDS011;11947;50.810;4.394;2022-08-04T14:07:44;11.65;;;5.60;;
23539;SDS011;11947;50.810;4.394;2022-08-04T14:10:18;10.10;;;5.80;;
23539;SDS011;11947;50.810;4.394;2022-08-04T14:13:06;8.60;;;5.95;;
23539;SDS011;11947;50.810;4.394;2022-08-04T14:15:55;15.57;;;6.50;;
23539;SDS011;11947;50.810;4.394;2022-08-04T14:18:22;9.18;;;5.57;;
23539;SDS011;11947;50.810;4.394;2022-08-04T14:21:01;11.70;;;6.20;;
23539;SDS011;11947;50.810;4.394;2022-08-04T14:23:40;14.85;;;7.68;;
23539;SDS011;11947;50.810;4.394;2022-08-04T14:26:15;11.50;;;5.85;;
23539;SDS011;11947;50.810;4.394;2022-08-04T14:28:52;10.10;;;4.60;;
23539;SDS011;11947;50.810;4.394;2022-08-04T14:31:23;15.60;;;8.35;;
23539;SDS011;11947;50.810;4.394;2022-08-04T14:33:53;9.57;;;6.57;;
23539;SDS011;11947;50.810;4.394;2022-08-04T14:36:19;9.18;;;6.53;;
23539;SDS011;11947;50.810;4.394;2022-08-04T14:38:49;10.50;;;6.35;;
23539;SDS011;11947;50.810;4.394;2022-08-04T14:41:16;12.23;;;5.50;;
23539;SDS011;11947;50.810;4.394;2022-08-04T14:44:02;7.60;;;6.05;;
23539;SDS011;11947;50.810;4.394;2022-08-04T14:46:28;12.57;;;5.63;;
23539;SDS011;11947;50.810;4.394;2022-08-04T14:49:04;8.55;;;5.53;;
23539;SDS011;11947;50.810;4.394;2022-08-04T14:51:55;11.02;;;5.38;;
23539;SDS011;11947;50.810;4.394;2022-08-04T14:54:29;8.50;;;5.85;;
23539;SDS011;11947;50.810;4.394;2022-08-04T14:57:02;8.43;;;6.25;;
23539;SDS011;11947;50.810;4.394;2022-08-04T14:59:42;8.77;;;5.63;;
23539;SDS011;11947;50.810;4.394;2022-08-04T15:02:10;11.07;;;6.72;;
23539;SDS011;11947;50.810;4.394;2022-08-04T15:04:37;12.05;;;5.20;;
23539;SDS011;11947;50.810;4.394;2022-08-04T15:07:04;11.13;;;5.32;;
23539;SDS011;11947;50.810;4.394;2022-08-04T15:09:30;8.30;;;5.50;;
23539;SDS011;11947;50.810;4.394;2022-08-04T15:11:56;15.07;;;7.78;;
23539;SDS011;11947;50.810;4.394;2022-08-04T15:14:22;6.03;;;5.07;;
23539;SDS011;11947;50.810;4.394;2022-08-04T15:16:49;10.88;;;5.38;;
23539;SDS011;11947;50.810;4.394;2022-08-04T15:19:14;9.80;;;5.65;;
23539;SDS011;11947;50.810;4.394;2022-08-04T15:21:40;9.43;;;5.70;;
23539;SDS011;11947;50.810;4.394;2022-08-04T15:24:06;11.10;;;5.82;;
23539;SDS011;11947;50.810;4.394;2022-08-04T15:26:32;11.43;;;5.35;;
23539;SDS011;11947;50.810;4.394;2022-08-04T15:29:46;10.43;;;5.20;;
23539;SDS011;11947;50.810;4.394;2022-08-04T15:32:06;12.30;;;5.43;;
23539;SDS011;11947;50.810;4.394;2022-08-04T15:34:46;12.35;;;5.55;;
23539;SDS011;11947;50.810;4.394;2022-08-04T15:37:36;10.20;;;4.80;;
23539;SDS011;11947;50.810;4.394;2022-08-04T15:40:13;8.55;;;5.55;;
23539;SDS011;11947;50.810;4.394;2022-08-04T15:45:31;7.65;;;5.40;;
23539;SDS011;11947;50.810;4.394;2022-08-04T15:50:59;7.15;;;4.60;;
23539;SDS011;11947;50.810;4.394;2022-08-04T15:53:31;11.52;;;5.07;;
23539;SDS011;11947;50.810;4.394;2022-08-04T15:58:54;10.70;;;4.88;;
23539;SDS011;11947;50.810;4.394;2022-08-04T16:01:20;9.80;;;4.35;;
23539;SDS011;11947;50.810;4.394;2022-08-04T16:03:48;10.40;;;4.82;;
23539;SDS011;11947;50.810;4.394;2022-08-04T16:16:47;9.35;;;4.50;;
23539;SDS011;11947;50.810;4.394;2022-08-04T16:19:28;6.30;;;4.00;;
23539;SDS011;11947;50.810;4.394;2022-08-04T16:22:12;12.82;;;4.80;;
23539;SDS011;11947;50.810;4.394;2022-08-04T16:25:03;9.50;;;4.70;;
23539;SDS011;11947;50.810;4.394;2022-08-04T16:27:37;9.45;;;4.60;;
23539;SDS011;11947;50.810;4.394;2022-08-04T16:30:26;11.25;;;4.65;;
23539;SDS011;11947;50.810;4.394;2022-08-04T16:32:51;11.85;;;5.00;;
23539;SDS011;11947;50.810;4.394;2022-08-04T16:35:37;7.28;;;4.00;;
23539;SDS011;11947;50.810;4.394;2022-08-04T16:39:00;7.53;;;4.22;;
23539;SDS011;11947;50.810;4.394;2022-08-04T16:41:41;13.40;;;4.70;;
23539;SDS011;11947;50.810;4.394;2022-08-04T16:44:27;8.68;;;4.50;;
23539;SDS011;11947;50.810;4.394;2022-08-04T16:46:53;12.05;;;5.10;;
23539;SDS011;11947;50.810;4.394;2022-08-04T16:49:19;11.45;;;4.30;;
23539;SDS011;11947;50.810;4.394;2022-08-04T16:51:46;8.13;;;4.97;;
23539;SDS011;11947;50.810;4.394;2022-08-04T16:54:13;11.10;;;5.07;;
23539;SDS011;11947;50.810;4.394;2022-08-04T16:56:39;11.52;;;4.70;;
23539;SDS011;11947;50.810;4.394;2022-08-04T16:59:09;8.43;;;4.20;;
23539;SDS011;11947;50.810;4.394;2022-08-04T17:01:53;8.88;;;4.57;;
23539;SDS011;11947;50.810;4.394;2022-08-04T17:04:29;6.95;;;4.63;;
23539;SDS011;11947;50.810;4.394;2022-08-04T17:07:00;8.13;;;4.50;;
23539;SDS011;11947;50.810;4.394;2022-08-04T17:09:27;14.38;;;4.75;;
23539;SDS011;11947;50.810;4.394;2022-08-04T17:11:53;11.77;;;4.28;;
23539;SDS011;11947;50.810;4.394;2022-08-04T17:14:23;10.63;;;4.30;;
23539;SDS011;11947;50.810;4.394;2022-08-04T17:16:53;9.65;;;4.10;;
23539;SDS011;11947;50.810;4.394;2022-08-04T17:19:20;8.40;;;4.05;;
23539;SDS011;11947;50.810;4.394;2022-08-04T17:21:48;8.48;;;4.10;;
23539;SDS011;11947;50.810;4.394;2022-08-04T17:24:17;7.45;;;3.45;;
23539;SDS011;11947;50.810;4.394;2022-08-04T17:26:43;15.73;;;8.98;;
23539;SDS011;11947;50.810;4.394;2022-08-04T17:29:11;11.20;;;6.22;;
23539;SDS011;11947;50.810;4.394;2022-08-04T17:31:37;11.15;;;5.60;;
23539;SDS011;11947;50.810;4.394;2022-08-04T17:34:10;7.03;;;4.05;;
23539;SDS011;11947;50.810;4.394;2022-08-04T17:36:40;8.75;;;3.72;;
23539;SDS011;11947;50.810;4.394;2022-08-04T17:39:13;9.27;;;3.85;;
23539;SDS011;11947;50.810;4.394;2022-08-04T17:41:41;6.30;;;3.88;;
23539;SDS011;11947;50.810;4.394;2022-08-04T17:44:10;8.20;;;3.65;;
23539;SDS011;11947;50.810;4.394;2022-08-04T17:46:36;12.18;;;4.20;;
23539;SDS011;11947;50.810;4.394;2022-08-04T17:49:09;9.60;;;3.63;;
23539;SDS011;11947;50.810;4.394;2022-08-04T17:54:39;9.05;;;3.35;;
23539;SDS011;11947;50.810;4.394;2022-08-04T17:57:15;13.10;;;4.03;;
23539;SDS011;11947;50.810;4.394;2022-08-04T17:59:42;7.28;;;3.42;;
23539;SDS011;11947;50.810;4.394;2022-08-04T18:02:08;13.30;;;4.70;;
23539;SDS011;11947;50.810;4.394;2022-08-04T18:07:15;6.40;;;3.92;;
23539;SDS011;11947;50.810;4.394;2022-08-04T18:10:01;9.80;;;4.32;;
23539;SDS011;11947;50.810;4.394;2022-08-04T18:12:28;8.30;;;3.88;;
23539;SDS011;11947;50.810;4.394;2022-08-04T18:14:56;9.55;;;4.07;;
23539;SDS011;11947;50.810;4.394;2022-08-04T18:17:30;9.25;;;3.65;;
23539;SDS011;11947;50.810;4.394;2022-08-04T18:20:02;8.93;;;3.95;;
23539;SDS011;11947;50.810;4.394;2022-08-04T18:22:30;12.15;;;4.05;;
23539;SDS011;11947;50.810;4.394;2022-08-04T18:24:56;11.98;;;3.92;;
23539;SDS011;11947;50.810;4.394;2022-08-04T18:27:23;12.52;;;4.30;;
23539;SDS011;11947;50.810;4.394;2022-08-04T18:29:50;9.35;;;3.95;;
23539;SDS011;11947;50.810;4.394;2022-08-04T18:32:16;6.93;;;4.03;;
23539;SDS011;11947;50.810;4.394;2022-08-04T18:34:44;11.00;;;3.90;;
23539;SDS011;11947;50.810;4.394;2022-08-04T18:37:10;8.75;;;3.67;;
23539;SDS011;11947;50.810;4.394;2022-08-04T18:39:35;8.48;;;4.38;;
23539;SDS011;11947;50.810;4.394;2022-08-04T18:42:01;13.05;;;4.30;;
23539;SDS011;11947;50.810;4.394;2022-08-04T18:44:27;11.75;;;4.05;;
23539;SDS011;11947;50.810;4.394;2022-08-04T18:46:57;13.05;;;4.47;;
23539;SDS011;11947;50.810;4.394;2022-08-04T18:49:24;9.02;;;3.63;;
23539;SDS011;11947;50.810;4.394;2022-08-04T18:51:53;10.98;;;3.95;;
23539;SDS011;11947;50.810;4.394;2022-08-04T18:54:20;8.35;;;4.10;;
23539;SDS011;11947;50.810;4.394;2022-08-04T18:56:48;7.53;;;3.63;;
23539;SDS011;11947;50.810;4.394;2022-08-04T18:59:15;8.18;;;4.00;;
23539;SDS011;11947;50.810;4.394;2022-08-04T19:01:41;9.88;;;3.85;;
23539;SDS011;11947;50.810;4.394;2022-08-04T19:04:07;9.32;;;4.47;;
23539;SDS011;11947;50.810;4.394;2022-08-04T19:06:34;11.05;;;4.18;;
23539;SDS011;11947;50.810;4.394;2022-08-04T19:09:00;9.55;;;4.25;;
23539;SDS011;11947;50.810;4.394;2022-08-04T19:11:27;13.63;;;5.35;;
23539;SDS011;11947;50.810;4.394;2022-08-04T19:13:52;15.30;;;5.53;;
23539;SDS011;11947;50.810;4.394;2022-08-04T19:16:25;19.92;;;6.43;;
23539;SDS011;11947;50.810;4.394;2022-08-04T19:18:52;24.15;;;7.00;;
23539;SDS011;11947;50.810;4.394;2022-08-04T19:21:17;16.30;;;6.80;;
23539;SDS011;11947;50.810;4.394;2022-08-04T19:23:43;24.55;;;7.57;;
23539;SDS011;11947;50.810;4.394;2022-08-04T19:26:09;14.80;;;6.72;;
23539;SDS011;11947;50.810;4.394;2022-08-04T19:28:34;17.33;;;7.28;;
23539;SDS011;11947;50.810;4.394;2022-08-04T19:31:01;14.82;;;6.63;;
23539;SDS011;11947;50.810;4.394;2022-08-04T19:33:31;33.35;;;7.10;;
23539;SDS011;11947;50.810;4.394;2022-08-04T19:35:57;19.67;;;7.60;;
23539;SDS011;11947;50.810;4.394;2022-08-04T19:38:24;18.90;;;8.07;;
23539;SDS011;11947;50.810;4.394;2022-08-04T19:40:49;18.27;;;7.53;;
23539;SDS011;11947;50.810;4.394;2022-08-04T19:43:15;21.10;;;8.77;;
23539;SDS011;11947;50.810;4.394;2022-08-04T19:45:41;12.52;;;8.65;;
23539;SDS011;11947;50.810;4.394;2022-08-04T19:48:07;35.83;;;9.00;;
23539;SDS011;11947;50.810;4.394;2022-08-04T19:50:33;16.90;;;8.05;;
23539;SDS011;11947;50.810;4.394;2022-08-04T19:52:58;15.23;;;7.07;;
23539;SDS011;11947;50.810;4.394;2022-08-04T19:55:24;15.93;;;7.82;;
23539;SDS011;11947;50.810;4.394;2022-08-04T19:57:50;16.02;;;7.97;;
23539;SDS011;11947;50.810;4.394;2022-08-04T20:00:17;24.77;;;8.13;;
23539;SDS011;11947;50.810;4.394;2022-08-04T20:02:44;16.02;;;8.70;;
23539;SDS011;11947;50.810;4.394;2022-08-04T20:05:21;33.88;;;9.32;;
23539;SDS011;11947;50.810;4.394;2022-08-04T20:07:47;31.02;;;8.68;;
23539;SDS011;11947;50.810;4.394;2022-08-04T20:10:12;27.00;;;10.88;;